createdAt,value
2022-12-03T00:00:47.237Z,556.00
2022-12-03T00:03:14.028Z,556.95
2022-12-03T00:05:48.360Z,555.15
2022-12-03T00:08:15.664Z,555.53
2022-12-03T00:10:42.289Z,552.17
2022-12-03T00:13:09.843Z,557.08
2022-12-03T00:15:36.487Z,558.85
2022-12-03T00:18:03.196Z,555.75
2022-12-03T00:20:29.763Z,556.00
2022-12-03T00:22:56.280Z,562.43
2022-12-03T00:25:22.800Z,562.17
2022-12-03T00:27:49.521Z,557.05
2022-12-03T00:30:16.112Z,559.97
2022-12-03T00:32:42.863Z,561.67
2022-12-03T00:35:10.107Z,556.50
2022-12-03T00:37:36.748Z,554.47
2022-12-03T00:40:05.172Z,556.10
2022-12-03T00:42:31.739Z,559.10
2022-12-03T00:44:58.300Z,553.35
2022-12-03T00:47:24.976Z,559.60
2022-12-03T00:49:51.647Z,561.58
2022-12-03T00:52:18.227Z,565.83
2022-12-03T00:54:45.380Z,561.50
2022-12-03T00:57:12.184Z,567.10
2022-12-03T00:59:40.758Z,571.10
2022-12-03T01:02:07.499Z,566.42
2022-12-03T01:04:34.233Z,567.38
2022-12-03T01:07:01.020Z,570.55
2022-12-03T01:09:27.609Z,566.70
2022-12-03T01:11:54.225Z,570.38
2022-12-03T01:14:21.030Z,568.08
2022-12-03T01:16:48.428Z,575.00
2022-12-03T01:19:16.836Z,573.67
2022-12-03T01:21:45.253Z,574.65
2022-12-03T01:24:12.184Z,577.57
2022-12-03T01:26:38.932Z,576.15
2022-12-03T01:29:05.561Z,572.83
2022-12-03T01:31:50.726Z,575.57
2022-12-03T01:34:17.585Z,575.47
2022-12-03T01:36:44.168Z,571.40
2022-12-03T01:39:10.806Z,570.22
2022-12-03T01:41:38.153Z,571.88
2022-12-03T01:44:14.457Z,577.90
2022-12-03T01:46:42.451Z,576.50
2022-12-03T01:49:31.333Z,582.45
2022-12-03T01:51:59.045Z,586.40
2022-12-03T01:54:30.888Z,581.47
2022-12-03T01:56:58.257Z,579.95
2022-12-03T01:59:35.603Z,584.63
2022-12-03T02:02:12.990Z,580.60
2022-12-03T02:04:39.931Z,581.55
2022-12-03T02:07:26.605Z,582.58
2022-12-03T02:09:55.248Z,583.28
2022-12-03T02:12:30.615Z,580.10
2022-12-03T02:14:58.010Z,573.43
2022-12-03T02:17:24.591Z,570.50
2022-12-03T02:19:51.484Z,568.53
2022-12-03T02:22:23.900Z,565.55
2022-12-03T02:24:58.704Z,570.53
2022-12-03T02:27:28.047Z,564.83
2022-12-03T02:29:54.642Z,566.00
2022-12-03T02:32:23.378Z,560.38
2022-12-03T02:34:51.763Z,563.72
2022-12-03T02:37:27.124Z,561.53
2022-12-03T02:39:58.753Z,560.50
2022-12-03T02:42:37.948Z,557.78
2022-12-03T02:45:39.452Z,554.95
2022-12-03T02:48:12.933Z,549.57
2022-12-03T02:50:48.463Z,551.97
2022-12-03T02:53:22.039Z,548.15
2022-12-03T02:55:50.478Z,546.50
2022-12-03T02:58:17.823Z,548.40
2022-12-03T03:00:45.769Z,552.42
2022-12-03T03:03:13.127Z,555.72
2022-12-03T03:05:41.523Z,553.55
2022-12-03T03:08:13.851Z,552.72
2022-12-03T03:10:42.070Z,530.55
2022-12-03T03:13:14.626Z,532.15
2022-12-03T03:15:42.284Z,547.50
2022-12-03T03:18:10.656Z,547.70
2022-12-03T03:20:38.381Z,548.55
2022-12-03T03:23:10.791Z,541.15
2022-12-03T03:25:39.345Z,544.38
2022-12-03T03:28:07.112Z,546.53
2022-12-03T03:30:35.437Z,545.00
2022-12-03T03:33:02.072Z,547.25
2022-12-03T03:35:28.837Z,551.00
2022-12-03T03:37:56.892Z,553.07
2022-12-03T03:40:23.568Z,551.35
2022-12-03T03:42:50.369Z,552.75
2022-12-03T03:45:17.950Z,554.38
2022-12-03T03:47:45.098Z,555.75
2022-12-03T03:50:13.454Z,553.65
2022-12-03T03:52:41.415Z,556.47
2022-12-03T03:55:10.193Z,553.78
2022-12-03T03:57:37.273Z,551.05
2022-12-03T04:00:06.392Z,553.95
2022-12-03T04:02:33.162Z,550.72
2022-12-03T04:05:00.043Z,549.08
2022-12-03T04:07:26.679Z,543.47
2022-12-03T04:09:53.347Z,544.83
2022-12-03T04:12:38.518Z,545.30
2022-12-03T04:15:06.024Z,547.45
2022-12-03T04:17:32.538Z,549.13
2022-12-03T04:19:59.117Z,546.25
2022-12-03T04:22:40.996Z,543.97
2022-12-03T04:25:27.986Z,544.08
2022-12-03T04:28:13.188Z,542.10
2022-12-03T04:30:39.871Z,542.17
2022-12-03T04:33:24.679Z,543.00
2022-12-03T04:35:51.410Z,539.85
2022-12-03T04:38:17.999Z,542.72
2022-12-03T04:41:05.020Z,539.50
2022-12-03T04:43:34.373Z,540.97
2022-12-03T04:46:01.692Z,539.70
2022-12-03T04:48:29.596Z,539.67
2022-12-03T04:50:56.183Z,547.95
2022-12-03T04:53:22.784Z,554.72
2022-12-03T04:55:49.296Z,553.78
2022-12-03T04:58:15.916Z,553.55
2022-12-03T05:00:42.527Z,562.05
2022-12-03T05:03:09.292Z,555.45
2022-12-03T05:05:35.804Z,557.17
2022-12-03T05:08:02.498Z,547.88
2022-12-03T05:10:29.149Z,550.38
2022-12-03T05:12:55.783Z,552.63
2022-12-03T05:15:22.569Z,553.92
2022-12-03T05:17:49.299Z,552.38
2022-12-03T05:20:34.799Z,552.08
2022-12-03T05:23:01.440Z,553.87
2022-12-03T05:25:27.951Z,550.33
2022-12-03T05:27:54.557Z,548.20
2022-12-03T05:30:22.393Z,547.72
2022-12-03T05:32:49.044Z,549.85
2022-12-03T05:35:15.777Z,548.22
2022-12-03T05:37:42.353Z,545.20
2022-12-03T05:40:09.861Z,545.53
2022-12-03T05:42:54.452Z,548.67
2022-12-03T05:45:29.358Z,547.45
2022-12-03T05:47:57.504Z,546.23
2022-12-03T05:50:26.324Z,551.67
2022-12-03T05:52:55.401Z,541.20
2022-12-03T05:55:22.375Z,551.08
2022-12-03T05:57:49.045Z,551.60
2022-12-03T06:00:18.903Z,547.22
2022-12-03T06:02:45.913Z,554.80
2022-12-03T06:05:14.540Z,551.80
2022-12-03T06:07:41.856Z,554.10
2022-12-03T06:10:11.551Z,555.03
2022-12-03T06:12:38.363Z,551.72
2022-12-03T06:15:05.992Z,556.90
2022-12-03T06:17:32.837Z,565.17
2022-12-03T06:20:08.140Z,561.20
2022-12-03T06:22:34.809Z,563.50
2022-12-03T06:25:06.611Z,561.88
2022-12-03T06:27:33.956Z,567.83
2022-12-03T06:30:00.509Z,569.97
2022-12-03T06:32:27.140Z,573.20
2022-12-03T06:34:53.914Z,574.72
2022-12-03T06:37:20.743Z,566.97
2022-12-03T06:39:47.447Z,569.28
2022-12-03T06:42:14.090Z,569.72
2022-12-03T06:44:41.218Z,568.63
2022-12-03T06:47:07.884Z,575.22
2022-12-03T06:49:34.765Z,570.40
2022-12-03T06:52:01.509Z,571.55
2022-12-03T06:54:28.099Z,574.15
2022-12-03T06:56:54.691Z,565.75
2022-12-03T06:59:21.210Z,565.25
2022-12-03T07:01:47.934Z,576.10
2022-12-03T07:04:14.502Z,567.28
2022-12-03T07:06:41.157Z,560.10
2022-12-03T07:09:07.775Z,558.47
2022-12-03T07:11:40.383Z,549.35
2022-12-03T07:14:09.145Z,556.15
2022-12-03T07:16:36.369Z,550.25
2022-12-03T07:19:04.412Z,539.20
2022-12-03T07:21:30.963Z,542.47
2022-12-03T07:23:57.805Z,551.38
2022-12-03T07:26:24.344Z,549.63
2022-12-03T07:28:51.193Z,530.15
2022-12-03T07:31:17.822Z,555.08
2022-12-03T07:33:44.436Z,554.38
2022-12-03T07:36:11.091Z,544.53
2022-12-03T07:38:37.717Z,539.67
2022-12-03T07:41:04.321Z,553.10
2022-12-03T07:43:30.879Z,556.67
2022-12-03T07:45:57.412Z,544.45
2022-12-03T07:48:24.098Z,552.47
2022-12-03T07:50:50.959Z,558.58
2022-12-03T07:53:17.675Z,556.40
2022-12-03T07:55:44.271Z,548.25
2022-12-03T07:58:12.107Z,544.90
2022-12-03T08:00:38.892Z,549.38
2022-12-03T08:03:05.495Z,546.38
2022-12-03T08:05:32.119Z,547.63
2022-12-03T08:07:58.713Z,553.40
2022-12-03T08:10:25.637Z,523.97
2022-12-03T08:12:53.650Z,525.28
2022-12-03T08:15:26.558Z,540.63
2022-12-03T08:17:58.835Z,529.95
2022-12-03T08:20:33.321Z,524.70
2022-12-03T08:23:06.921Z,525.05
2022-12-03T08:25:33.740Z,518.47
2022-12-03T08:28:13.220Z,512.55
2022-12-03T08:30:41.588Z,511.38
2022-12-03T08:33:28.038Z,501.27
2022-12-03T08:35:54.858Z,507.88
2022-12-03T08:38:23.779Z,510.00
2022-12-03T08:40:52.493Z,509.00
2022-12-03T08:43:27.984Z,488.52
2022-12-03T08:45:56.108Z,508.75
2022-12-03T08:48:33.914Z,505.10
2022-12-03T08:51:03.922Z,500.58
2022-12-03T08:53:46.440Z,503.23
2022-12-03T08:56:22.112Z,499.75
2022-12-03T08:58:53.014Z,488.50
2022-12-03T09:01:41.595Z,487.33
2022-12-03T09:04:26.979Z,499.20
2022-12-03T09:06:54.551Z,486.33
2022-12-03T09:09:22.876Z,497.38
2022-12-03T09:11:50.153Z,504.17
2022-12-03T09:14:18.935Z,489.33
2022-12-03T09:16:45.944Z,488.58
2022-12-03T09:19:12.575Z,497.40
2022-12-03T09:21:39.157Z,506.25
2022-12-03T09:24:05.891Z,489.15
2022-12-03T09:26:32.509Z,510.50
2022-12-03T09:28:59.033Z,506.57
2022-12-03T09:31:25.728Z,516.60
2022-12-03T09:33:52.314Z,497.20
2022-12-03T09:36:18.894Z,516.75
2022-12-03T09:38:47.907Z,496.85
2022-12-03T09:41:15.450Z,486.15
2022-12-03T09:46:30.129Z,502.50
2022-12-03T09:48:57.095Z,504.83
2022-12-03T09:51:30.424Z,494.92
2022-12-03T09:53:59.707Z,475.80
2022-12-03T09:56:26.273Z,485.73
2022-12-03T09:58:52.843Z,475.15
2022-12-03T10:01:21.204Z,463.67
2022-12-03T10:03:52.543Z,471.70
2022-12-03T10:06:23.442Z,467.60
2022-12-03T10:08:54.727Z,468.63
2022-12-03T10:11:25.331Z,465.15
2022-12-03T10:13:54.520Z,474.98
2022-12-03T10:16:21.521Z,469.02
2022-12-03T10:18:52.106Z,466.27
2022-12-03T10:21:38.502Z,455.25
2022-12-03T10:24:22.702Z,464.00
2022-12-03T10:26:51.241Z,480.73
2022-12-03T10:29:20.624Z,485.33
2022-12-03T10:31:57.356Z,493.23
2022-12-03T10:34:32.743Z,478.87
2022-12-03T10:37:13.224Z,484.95
2022-12-03T10:39:56.257Z,485.90
2022-12-03T10:42:24.492Z,480.67
2022-12-03T10:45:12.567Z,486.33
2022-12-03T10:47:39.450Z,487.38
2022-12-03T10:50:15.074Z,489.00
2022-12-03T10:52:41.964Z,486.25
2022-12-03T10:55:13.098Z,490.52
2022-12-03T10:57:45.279Z,481.20
2022-12-03T11:00:17.646Z,489.83
2022-12-03T11:02:45.165Z,502.70
2022-12-03T11:05:21.579Z,523.47
2022-12-03T11:07:48.696Z,515.80
2022-12-03T11:10:17.889Z,511.27
2022-12-03T11:13:23.143Z,514.83
2022-12-03T11:15:49.750Z,509.95
2022-12-03T11:18:37.856Z,509.52
2022-12-03T11:21:13.051Z,516.95
2022-12-03T11:23:45.298Z,487.77
2022-12-03T11:26:38.118Z,514.92
2022-12-03T11:29:13.970Z,514.85
2022-12-03T11:31:42.203Z,519.60
2022-12-03T11:34:17.860Z,499.60
2022-12-03T11:37:09.481Z,507.35
2022-12-03T11:39:48.240Z,523.60
2022-12-03T11:42:26.810Z,522.13
2022-12-03T11:45:02.782Z,517.90
2022-12-03T11:47:35.285Z,524.67
2022-12-03T11:50:02.959Z,539.20
2022-12-03T11:52:41.625Z,554.95
2022-12-03T11:55:23.103Z,545.47
2022-12-03T11:57:57.906Z,549.10
2022-12-03T12:00:24.753Z,533.60
2022-12-03T12:02:53.874Z,546.08
2022-12-03T12:05:32.775Z,543.97
2022-12-03T12:08:01.358Z,540.05
2022-12-03T12:10:39.071Z,540.57
2022-12-03T12:13:06.328Z,537.20
2022-12-03T12:15:34.274Z,531.65
2022-12-03T12:18:38.372Z,532.85
2022-12-03T12:21:42.428Z,532.17
2022-12-03T12:24:40.262Z,535.42
2022-12-03T12:27:09.467Z,541.38
2022-12-03T12:29:37.735Z,532.03
2022-12-03T12:32:13.579Z,525.67
2022-12-03T12:34:45.325Z,540.90
2022-12-03T12:37:21.437Z,532.88
2022-12-03T12:39:48.880Z,538.20
2022-12-03T12:42:39.424Z,535.08
2022-12-03T12:45:14.609Z,541.17
2022-12-03T12:47:56.471Z,547.70
2022-12-03T12:50:23.195Z,534.65
2022-12-03T12:53:01.678Z,540.50
2022-12-03T12:55:28.367Z,544.80
2022-12-03T12:57:59.877Z,534.10
2022-12-03T13:00:26.625Z,541.10
2022-12-03T13:03:00.269Z,531.15
2022-12-03T13:05:38.039Z,532.23
2022-12-03T13:08:28.388Z,540.70
2022-12-03T13:11:00.243Z,545.92
2022-12-03T13:13:41.654Z,543.72
2022-12-03T13:16:31.000Z,550.63
2022-12-03T13:18:59.168Z,552.47
2022-12-03T13:21:34.799Z,548.05
2022-12-03T13:24:01.641Z,553.63
2022-12-03T13:26:39.747Z,553.10
2022-12-03T13:29:13.718Z,539.92
2022-12-03T13:31:44.211Z,544.63
2022-12-03T13:34:21.423Z,556.03
2022-12-03T13:36:55.298Z,547.77
2022-12-03T13:39:30.187Z,549.72
2022-12-03T13:42:20.346Z,561.63
2022-12-03T13:44:49.229Z,558.88
2022-12-03T13:47:19.829Z,559.97
2022-12-03T13:49:52.047Z,558.42
2022-12-03T13:52:21.696Z,559.90
2022-12-03T13:54:53.957Z,566.27
2022-12-03T13:57:22.415Z,561.70
2022-12-03T14:00:05.601Z,573.57
2022-12-03T14:02:39.111Z,566.70
2022-12-03T14:05:05.998Z,571.45
2022-12-03T14:07:32.549Z,560.78
2022-12-03T14:09:59.177Z,568.88
2022-12-03T14:12:25.694Z,565.58
2022-12-03T14:14:53.411Z,560.38
2022-12-03T14:17:20.396Z,567.55
2022-12-03T14:19:46.996Z,565.47
2022-12-03T14:22:13.665Z,563.17
2022-12-03T14:24:40.398Z,572.00
2022-12-03T14:27:06.959Z,571.08
2022-12-03T14:29:33.615Z,564.97
2022-12-03T14:32:00.316Z,577.50
2022-12-03T14:34:27.095Z,570.47
2022-12-03T14:36:53.983Z,572.45
2022-12-03T14:39:20.978Z,574.67
2022-12-03T14:42:06.068Z,563.78
2022-12-03T14:44:32.680Z,570.10
2022-12-03T14:46:59.234Z,545.28
2022-12-03T14:49:25.939Z,587.80
2022-12-03T14:51:53.019Z,577.72
2022-12-03T14:54:19.622Z,569.70
2022-12-03T14:56:46.168Z,554.78
2022-12-03T14:59:12.739Z,546.40
2022-12-03T15:01:39.383Z,568.20
2022-12-03T15:04:06.114Z,574.10
2022-12-03T15:06:33.563Z,562.95
2022-12-03T15:09:00.197Z,557.70
2022-12-03T15:11:26.794Z,570.15
2022-12-03T15:13:53.401Z,561.35
2022-12-03T15:16:20.078Z,562.28
2022-12-03T15:18:46.776Z,561.20
2022-12-03T15:21:13.404Z,565.53
2022-12-03T15:23:40.095Z,561.78
2022-12-03T15:26:06.697Z,566.67
2022-12-03T15:28:33.422Z,564.10
2022-12-03T15:31:00.153Z,569.45
2022-12-03T15:33:26.911Z,573.67
2022-12-03T15:35:53.515Z,561.00
2022-12-03T15:38:20.310Z,572.50
2022-12-03T15:40:46.865Z,542.97
2022-12-03T15:43:13.594Z,572.75
2022-12-03T15:45:40.399Z,567.78
2022-12-03T15:48:07.191Z,571.38
2022-12-03T15:50:39.714Z,575.88
2022-12-03T15:53:06.956Z,579.22
2022-12-03T15:55:33.525Z,583.38
2022-12-03T15:58:00.381Z,584.65
2022-12-03T16:00:26.925Z,583.10
2022-12-03T16:02:53.627Z,589.15
2022-12-03T16:05:20.442Z,579.85
2022-12-03T16:07:47.099Z,584.63
2022-12-03T16:10:13.718Z,585.88
2022-12-03T16:12:40.370Z,588.75
2022-12-03T16:15:07.150Z,584.70
2022-12-03T16:17:33.853Z,568.95
2022-12-03T16:20:00.445Z,579.28
2022-12-03T16:22:27.079Z,578.63
2022-12-03T16:24:53.616Z,580.88
2022-12-03T16:27:25.338Z,583.38
2022-12-03T16:29:52.707Z,585.03
2022-12-03T16:32:19.580Z,576.83
2022-12-03T16:34:46.135Z,584.30
2022-12-03T16:37:12.692Z,580.65
2022-12-03T16:39:47.019Z,586.13
2022-12-03T16:42:17.240Z,578.38
2022-12-03T16:45:03.128Z,577.95
2022-12-03T16:47:33.915Z,584.38
2022-12-03T16:50:02.164Z,581.65
2022-12-03T16:52:29.041Z,585.43
2022-12-03T16:54:55.735Z,585.05
2022-12-03T16:57:22.264Z,589.03
2022-12-03T16:59:48.912Z,583.75
2022-12-03T17:02:15.545Z,584.38
2022-12-03T17:04:43.152Z,586.15
2022-12-03T17:07:09.838Z,586.72
2022-12-03T17:09:36.510Z,582.47
2022-12-03T17:12:03.099Z,590.63
2022-12-03T17:14:33.212Z,587.23
2022-12-03T17:17:00.308Z,579.22
2022-12-03T17:19:27.112Z,586.65
2022-12-03T17:21:54.773Z,580.83
2022-12-03T17:24:21.599Z,586.47
2022-12-03T17:26:48.390Z,582.78
2022-12-03T17:29:15.013Z,591.25
2022-12-03T17:31:42.437Z,589.80
2022-12-03T17:34:09.875Z,591.13
2022-12-03T17:36:36.582Z,589.83
2022-12-03T17:39:03.234Z,581.15
2022-12-03T17:41:29.996Z,587.33
2022-12-03T17:43:56.854Z,587.85
2022-12-03T17:46:23.857Z,586.83
2022-12-03T17:48:51.071Z,600.55
2022-12-03T17:51:21.914Z,596.45
2022-12-03T17:53:48.664Z,582.70
2022-12-03T17:56:15.543Z,592.90
2022-12-03T17:58:44.723Z,593.90
2022-12-03T18:01:11.540Z,592.08
2022-12-03T18:03:38.392Z,609.70
2022-12-03T18:06:05.149Z,605.67
2022-12-03T18:08:31.684Z,610.97
2022-12-03T18:10:58.298Z,604.65
2022-12-03T18:13:25.021Z,609.40
2022-12-03T18:15:54.632Z,614.43
2022-12-03T18:18:21.384Z,607.95
2022-12-03T18:20:48.077Z,614.60
2022-12-03T18:23:14.863Z,612.35
2022-12-03T18:25:42.102Z,613.25
2022-12-03T18:28:08.647Z,601.00
2022-12-03T18:30:35.477Z,601.00
2022-12-03T18:33:02.059Z,607.00
2022-12-03T18:35:29.896Z,602.40
2022-12-03T18:37:56.560Z,606.38
2022-12-03T18:40:24.824Z,600.63
2022-12-03T18:42:52.736Z,593.67
2022-12-03T18:45:19.412Z,597.30
2022-12-03T18:47:46.296Z,567.38
2022-12-03T18:50:13.583Z,580.10
2022-12-03T18:52:40.874Z,581.25
2022-12-03T18:55:08.450Z,581.97
2022-12-03T18:57:35.230Z,575.75
2022-12-03T19:00:11.828Z,571.90
2022-12-03T19:03:02.910Z,581.57
2022-12-03T19:05:26.662Z,567.65
2022-12-03T19:07:55.110Z,570.53
2022-12-03T19:10:22.192Z,572.65
2022-12-03T19:12:50.182Z,563.28
2022-12-03T19:15:17.229Z,564.60
2022-12-03T19:17:50.466Z,564.28
2022-12-03T19:20:17.294Z,561.00
2022-12-03T19:22:43.981Z,548.42
2022-12-03T19:25:10.678Z,575.08
2022-12-03T19:27:37.256Z,571.45
2022-12-03T19:30:04.511Z,561.17
2022-12-03T19:32:31.079Z,561.63
2022-12-03T19:34:57.895Z,558.83
2022-12-03T19:37:24.519Z,545.38
2022-12-03T19:39:54.551Z,555.33
2022-12-03T19:42:21.466Z,556.65
2022-12-03T19:44:48.024Z,557.55
2022-12-03T19:47:14.865Z,557.95
2022-12-03T19:49:41.414Z,556.72
2022-12-03T19:52:08.267Z,553.15
2022-12-03T19:54:39.449Z,550.70
2022-12-03T19:57:06.113Z,548.95
2022-12-03T19:59:32.698Z,559.70
2022-12-03T20:01:59.638Z,535.97
2022-12-03T20:04:28.822Z,538.92
2022-12-03T20:07:05.055Z,540.22
2022-12-03T20:09:32.229Z,543.22
2022-12-03T20:11:58.997Z,545.85
2022-12-03T20:14:25.814Z,527.78
2022-12-03T20:16:52.561Z,539.63
2022-12-03T20:19:19.353Z,538.33
2022-12-03T20:21:46.021Z,544.53
2022-12-03T20:24:16.078Z,535.42
2022-12-03T20:26:43.343Z,533.23
2022-12-03T20:29:10.056Z,530.83
2022-12-03T20:31:36.959Z,521.22
2022-12-03T20:34:32.398Z,524.75
2022-12-03T20:36:59.172Z,531.72
2022-12-03T20:42:34.783Z,548.28
2022-12-03T20:45:14.992Z,544.30
2022-12-03T20:47:44.249Z,545.10
2022-12-03T20:53:23.128Z,542.55
2022-12-03T20:55:55.313Z,545.78
2022-12-03T20:58:21.989Z,550.67
2022-12-03T21:00:48.589Z,539.50
2022-12-03T21:03:15.181Z,543.33
2022-12-03T21:05:43.785Z,543.25
2022-12-03T21:08:11.089Z,537.75
2022-12-03T21:10:45.043Z,535.58
2022-12-03T21:13:13.338Z,536.63
2022-12-03T21:15:40.097Z,525.92
2022-12-03T21:18:06.878Z,530.00
2022-12-03T21:20:33.528Z,532.63
2022-12-03T21:23:00.166Z,532.75
2022-12-03T21:25:26.796Z,536.65
2022-12-03T21:27:55.091Z,537.78
2022-12-03T21:30:21.704Z,524.73
2022-12-03T21:32:48.276Z,531.63
2022-12-03T21:35:15.001Z,535.60
2022-12-03T21:37:41.673Z,544.90
2022-12-03T21:40:08.708Z,538.90
2022-12-03T21:42:37.232Z,537.85
2022-12-03T21:45:05.228Z,522.55
2022-12-03T21:47:37.009Z,529.47
2022-12-03T21:50:06.118Z,531.05
2022-12-03T21:52:34.191Z,530.75
2022-12-03T21:55:01.056Z,528.72
2022-12-03T21:57:27.754Z,529.83
2022-12-03T21:59:55.780Z,524.47
2022-12-03T22:02:22.791Z,532.67
2022-12-03T22:04:51.467Z,533.47
2022-12-03T22:07:18.097Z,529.33
2022-12-03T22:09:44.727Z,532.90
2022-12-03T22:12:11.268Z,544.00
2022-12-03T22:14:37.947Z,545.15
2022-12-03T22:17:04.695Z,537.65
2022-12-03T22:19:31.432Z,531.35
2022-12-03T22:21:58.151Z,532.25
2022-12-03T22:24:24.838Z,530.92
2022-12-03T22:26:53.422Z,540.90
2022-12-03T22:29:20.125Z,541.22
2022-12-03T22:31:46.707Z,547.57
2022-12-03T22:34:13.339Z,549.25
2022-12-03T22:36:40.009Z,552.63
2022-12-03T22:39:06.737Z,547.90
2022-12-03T22:41:33.347Z,550.78
2022-12-03T22:44:00.004Z,547.53
2022-12-03T22:46:26.620Z,543.38
2022-12-03T22:48:53.372Z,546.90
2022-12-03T22:51:22.481Z,541.78
2022-12-03T22:53:56.699Z,547.08
2022-12-03T22:56:24.072Z,541.10
2022-12-03T22:58:50.786Z,542.28
2022-12-03T23:01:26.861Z,532.75
2022-12-03T23:03:54.395Z,542.88
2022-12-03T23:06:22.473Z,542.75
2022-12-03T23:08:49.425Z,541.35
2022-12-03T23:11:16.933Z,543.03
2022-12-03T23:13:43.589Z,544.90
2022-12-03T23:16:18.429Z,543.60
2022-12-03T23:18:45.238Z,547.88
2022-12-03T23:21:17.430Z,543.10
2022-12-03T23:23:43.996Z,549.83
2022-12-03T23:26:12.239Z,537.63
2022-12-03T23:28:41.039Z,540.38
2022-12-03T23:31:16.696Z,547.00
2022-12-03T23:33:43.351Z,541.92
2022-12-03T23:36:10.576Z,546.33
2022-12-03T23:38:37.432Z,549.95
2022-12-03T23:41:11.144Z,550.13
2022-12-03T23:43:38.610Z,549.63
2022-12-03T23:46:11.223Z,546.28
2022-12-03T23:48:38.002Z,545.60
2022-12-03T23:51:06.369Z,547.47
2022-12-03T23:53:33.033Z,542.45
2022-12-03T23:55:59.603Z,545.03
2022-12-03T23:58:26.199Z,546.17
